sensor_id;sensor_type;location;lat;lon;timestamp;pressure;altitude;pressure_sealevel;temperature;humidity
77543;BME280;66669;52.100;5.104;2023-04-01T00:01:00;99000.75;;;23.22;39.81
77543;BME280;66669;52.100;5.104;2023-04-01T00:03:27;99000.75;;;23.22;39.87
77543;BME280;66669;52.100;5.104;2023-04-01T00:05:53;99003.53;;;23.22;39.84
77543;BME280;66669;52.100;5.104;2023-04-01T00:08:18;99004.34;;;23.22;39.95
77543;BME280;66669;52.100;5.104;2023-04-01T00:10:43;99011.16;;;23.21;39.79
77543;BME280;66669;52.100;5.104;2023-04-01T00:13:09;99011.16;;;23.21;39.85
77543;BME280;66669;52.100;5.104;2023-04-01T00:15:34;99010.38;;;23.21;39.81
77543;BME280;66669;52.100;5.104;2023-04-01T00:18:00;99012.38;;;23.20;39.79
77543;BME280;66669;52.100;5.104;2023-04-01T00:20:26;99017.97;;;23.20;39.85
77543;BME280;66669;52.100;5.104;2023-04-01T00:22:51;99013.63;;;23.19;39.79
77543;BME280;66669;52.100;5.104;2023-04-01T00:25:16;99020.44;;;23.18;40.03
77543;BME280;66669;52.100;5.104;2023-04-01T00:27:42;99014.84;;;23.18;39.95
77543;BME280;66669;52.100;5.104;2023-04-01T00:30:07;99015.25;;;23.16;40.04
77543;BME280;66669;52.100;5.104;2023-04-01T00:32:33;99017.28;;;23.16;40.13
77543;BME280;66669;52.100;5.104;2023-04-01T00:34:58;99010.13;;;23.15;40.07
77543;BME280;66669;52.100;5.104;2023-04-01T00:37:24;99019.66;;;23.18;40.13
77543;BME280;66669;52.100;5.104;2023-04-01T00:39:50;99021.91;;;23.23;40.21
77543;BME280;66669;52.100;5.104;2023-04-01T00:42:15;99019.44;;;23.25;40.18
77543;BME280;66669;52.100;5.104;2023-04-01T00:44:41;99025.03;;;23.25;40.06
77543;BME280;66669;52.100;5.104;2023-04-01T00:47:06;99027.06;;;23.24;39.96
77543;BME280;66669;52.100;5.104;2023-04-01T00:49:33;99025.47;;;23.23;39.88
77543;BME280;66669;52.100;5.104;2023-04-01T00:52:00;99023.09;;;23.22;40.17
77543;BME280;66669;52.100;5.104;2023-04-01T00:54:27;99031.50;;;23.22;40.06
77543;BME280;66669;52.100;5.104;2023-04-01T00:59:33;99028.38;;;23.20;39.93
77543;BME280;66669;52.100;5.104;2023-04-01T01:02:00;99034.75;;;23.20;39.99
77543;BME280;66669;52.100;5.104;2023-04-01T01:04:27;99034.75;;;23.20;39.98
77543;BME280;66669;52.100;5.104;2023-04-01T01:19:52;99039.22;;;23.18;40.16
77543;BME280;66669;52.100;5.104;2023-04-01T01:22:30;99036.84;;;23.16;39.96
77543;BME280;66669;52.100;5.104;2023-04-01T01:27:43;99037.28;;;23.14;40.11
77543;BME280;66669;52.100;5.104;2023-04-01T01:32:48;99041.31;;;23.13;40.16
77543;BME280;66669;52.100;5.104;2023-04-01T01:37:54;99045.31;;;23.12;40.06
77543;BME280;66669;52.100;5.104;2023-04-01T01:40:20;99041.72;;;23.12;40.10
77543;BME280;66669;52.100;5.104;2023-04-01T01:42:47;99037.38;;;23.11;40.13
77543;BME280;66669;52.100;5.104;2023-04-01T01:45:14;99042.19;;;23.10;40.12
77543;BME280;66669;52.100;5.104;2023-04-01T01:47:42;99046.53;;;23.11;40.21
77543;BME280;66669;52.100;5.104;2023-04-01T01:50:08;99044.97;;;23.10;40.10
77543;BME280;66669;52.100;5.104;2023-04-01T01:52:34;99046.97;;;23.10;40.13
77543;BME280;66669;52.100;5.104;2023-04-01T01:54:59;99052.56;;;23.10;40.24
77543;BME280;66669;52.100;5.104;2023-04-01T01:57:32;99056.56;;;23.09;40.05
77543;BME280;66669;52.100;5.104;2023-04-01T02:00:00;99043.81;;;23.08;40.30
77543;BME280;66669;52.100;5.104;2023-04-01T02:02:26;99045.84;;;23.07;40.25
77543;BME280;66669;52.100;5.104;2023-04-01T02:04:56;99053.78;;;23.09;40.23
77543;BME280;66669;52.100;5.104;2023-04-01T02:07:23;99065.75;;;23.09;40.10
77543;BME280;66669;52.100;5.104;2023-04-01T02:09:50;99052.66;;;23.06;40.13
77543;BME280;66669;52.100;5.104;2023-04-01T02:12:16;99061.81;;;23.07;40.21
77543;BME280;66669;52.100;5.104;2023-04-01T02:17:10;99063.06;;;23.06;40.16
77543;BME280;66669;52.100;5.104;2023-04-01T02:22:34;99071.84;;;23.04;40.23
77543;BME280;66669;52.100;5.104;2023-04-01T02:25:06;99070.28;;;23.03;40.23
77543;BME280;66669;52.100;5.104;2023-04-01T02:27:32;99069.84;;;23.05;40.24
77543;BME280;66669;52.100;5.104;2023-04-01T02:29:57;99069.84;;;23.05;40.12
77543;BME280;66669;52.100;5.104;2023-04-01T02:32:23;99070.28;;;23.03;40.10
77543;BME280;66669;52.100;5.104;2023-04-01T02:34:48;99070.28;;;23.03;40.14
77543;BME280;66669;52.100;5.104;2023-04-01T02:37:14;99078.66;;;23.03;40.14
77543;BME280;66669;52.100;5.104;2023-04-01T02:39:40;99084.25;;;23.03;40.31
77543;BME280;66669;52.100;5.104;2023-04-01T02:42:05;99088.28;;;23.02;40.15
77543;BME280;66669;52.100;5.104;2023-04-01T02:44:31;99076.31;;;23.02;40.19
77543;BME280;66669;52.100;5.104;2023-04-01T02:46:56;99085.50;;;23.02;40.17
77543;BME280;66669;52.100;5.104;2023-04-01T02:49:21;99080.34;;;23.01;40.29
77543;BME280;66669;52.100;5.104;2023-04-01T02:51:46;99087.06;;;23.03;40.15
77543;BME280;66669;52.100;5.104;2023-04-01T02:54:12;99093.09;;;23.02;40.30
77543;BME280;66669;52.100;5.104;2023-04-01T02:56:37;99095.88;;;23.02;40.32
77543;BME280;66669;52.100;5.104;2023-04-01T02:59:02;99095.09;;;23.01;40.19
77543;BME280;66669;52.100;5.104;2023-04-01T03:01:27;99102.69;;;23.01;40.29
77543;BME280;66669;52.100;5.104;2023-04-01T03:03:53;99106.28;;;23.01;40.18
77543;BME280;66669;52.100;5.104;2023-04-01T03:06:18;99111.09;;;23.01;40.07
77543;BME280;66669;52.100;5.104;2023-04-01T03:08:43;99116.66;;;23.01;40.05
77543;BME280;66669;52.100;5.104;2023-04-01T03:11:09;99110.72;;;22.99;40.23
77543;BME280;66669;52.100;5.104;2023-04-01T03:13:34;99119.88;;;22.99;40.10
77543;BME280;66669;52.100;5.104;2023-04-01T03:16:00;99124.69;;;22.99;40.25
77543;BME280;66669;52.100;5.104;2023-04-01T03:18:25;99121.09;;;22.98;40.16
77543;BME280;66669;52.100;5.104;2023-04-01T03:20:50;99124.69;;;22.99;40.22
77543;BME280;66669;52.100;5.104;2023-04-01T03:23:15;99136.66;;;22.99;40.13
77543;BME280;66669;52.100;5.104;2023-04-01T03:25:43;99137.44;;;23.00;40.11
77543;BME280;66669;52.100;5.104;2023-04-01T03:28:08;99138.66;;;22.99;40.22
77543;BME280;66669;52.100;5.104;2023-04-01T03:30:33;99139.88;;;22.98;40.22
77543;BME280;66669;52.100;5.104;2023-04-01T03:32:59;99148.25;;;22.98;40.15
77543;BME280;66669;52.100;5.104;2023-04-01T03:35:25;99149.03;;;22.98;40.20
77543;BME280;66669;52.100;5.104;2023-04-01T03:37:51;99154.25;;;22.96;40.18
77543;BME280;66669;52.100;5.104;2023-04-01T03:40:16;99145.88;;;22.96;40.28
77543;BME280;66669;52.100;5.104;2023-04-01T03:42:42;99154.25;;;22.96;40.22
77543;BME280;66669;52.100;5.104;2023-04-01T03:45:07;99157.06;;;22.96;40.36
77543;BME280;66669;52.100;5.104;2023-04-01T03:47:32;99157.06;;;22.96;40.16
77543;BME280;66669;52.100;5.104;2023-04-01T03:49:58;99164.66;;;22.96;40.43
77543;BME280;66669;52.100;5.104;2023-04-01T03:52:23;99160.31;;;22.95;40.38
77543;BME280;66669;52.100;5.104;2023-04-01T03:54:48;99167.91;;;22.94;40.29
77543;BME280;66669;52.100;5.104;2023-04-01T03:57:13;99182.19;;;22.96;40.22
77543;BME280;66669;52.100;5.104;2023-04-01T03:59:39;99177.06;;;22.95;40.17
77543;BME280;66669;52.100;5.104;2023-04-01T04:02:04;99179.50;;;22.93;40.13
77543;BME280;66669;52.100;5.104;2023-04-01T04:04:30;99191.88;;;22.91;40.32
77543;BME280;66669;52.100;5.104;2023-04-01T04:06:55;99196.31;;;22.89;40.24
77543;BME280;66669;52.100;5.104;2023-04-01T04:09:21;99188.34;;;22.87;40.45
77543;BME280;66669;52.100;5.104;2023-04-01T04:11:46;99191.59;;;22.86;40.39
77543;BME280;66669;52.100;5.104;2023-04-01T04:14:11;99201.97;;;22.85;40.44
77543;BME280;66669;52.100;5.104;2023-04-01T04:16:37;99210.00;;;22.83;40.49
77543;BME280;66669;52.100;5.104;2023-04-01T04:19:02;99200.81;;;22.83;40.47
77543;BME280;66669;52.100;5.104;2023-04-01T04:21:28;99212.44;;;22.81;40.54
77543;BME280;66669;52.100;5.104;2023-04-01T04:23:53;99220.03;;;22.81;40.56
77543;BME280;66669;52.100;5.104;2023-04-01T04:26:19;99222.84;;;22.81;40.40
77543;BME280;66669;52.100;5.104;2023-04-01T04:28:44;99220.44;;;22.79;40.43
77543;BME280;66669;52.100;5.104;2023-04-01T04:31:09;99226.47;;;22.78;40.34
77543;BME280;66669;52.100;5.104;2023-04-01T04:33:35;99232.06;;;22.78;40.59
77543;BME280;66669;52.100;5.104;2023-04-01T04:36:00;99237.31;;;22.76;40.60
77543;BME280;66669;52.100;5.104;2023-04-01T04:38:26;99233.69;;;22.75;40.63
77543;BME280;66669;52.100;5.104;2023-04-01T04:40:51;99240.50;;;22.74;40.64
77543;BME280;66669;52.100;5.104;2023-04-01T04:43:16;99247.66;;;22.75;40.64
77543;BME280;66669;52.100;5.104;2023-04-01T04:45:42;99256.47;;;22.74;40.44
77543;BME280;66669;52.100;5.104;2023-04-01T04:48:08;99251.69;;;22.74;40.52
77543;BME280;66669;52.100;5.104;2023-04-01T04:50:34;99256.47;;;22.74;40.61
77543;BME280;66669;52.100;5.104;2023-04-01T04:52:59;99261.28;;;22.73;40.47
77543;BME280;66669;52.100;5.104;2023-04-01T04:55:24;99270.44;;;22.74;40.67
77543;BME280;66669;52.100;5.104;2023-04-01T04:57:50;99268.88;;;22.73;40.48
77543;BME280;66669;52.100;5.104;2023-04-01T05:00:15;99280.47;;;22.71;40.46
77543;BME280;66669;52.100;5.104;2023-04-01T05:02:40;99290.06;;;22.70;40.62
77543;BME280;66669;52.100;5.104;2023-04-01T05:05:06;99281.69;;;22.70;40.60
77543;BME280;66669;52.100;5.104;2023-04-01T05:07:32;99292.84;;;22.70;40.66
77543;BME280;66669;52.100;5.104;2023-04-01T05:09:58;99299.22;;;22.71;40.67
77543;BME280;66669;52.100;5.104;2023-04-01T05:12:23;99296.88;;;22.69;40.73
77543;BME280;66669;52.100;5.104;2023-04-01T05:14:48;99308.84;;;22.70;40.74
77543;BME280;66669;52.100;5.104;2023-04-01T05:17:14;99310.41;;;22.71;40.60
77543;BME280;66669;52.100;5.104;2023-04-01T05:19:39;99312.41;;;22.70;40.61
77543;BME280;66669;52.100;5.104;2023-04-01T05:22:05;99315.19;;;22.70;40.67
77543;BME280;66669;52.100;5.104;2023-04-01T05:24:31;99315.97;;;22.71;40.58
77543;BME280;66669;52.100;5.104;2023-04-01T05:26:56;99322.78;;;22.70;40.53
77543;BME280;66669;52.100;5.104;2023-04-01T05:29:22;99326.81;;;22.69;40.74
77543;BME280;66669;52.100;5.104;2023-04-01T05:31:47;99335.19;;;22.69;40.63
77543;BME280;66669;52.100;5.104;2023-04-01T05:34:13;99341.22;;;22.67;40.73
77543;BME280;66669;52.100;5.104;2023-04-01T05:36:38;99339.22;;;22.67;40.59
77543;BME280;66669;52.100;5.104;2023-04-01T05:39:03;99349.59;;;22.67;40.67
77543;BME280;66669;52.100;5.104;2023-04-01T05:41:28;99347.19;;;22.65;40.63
77543;BME280;66669;52.100;5.104;2023-04-01T05:43:54;99356.03;;;22.64;40.49
77543;BME280;66669;52.100;5.104;2023-04-01T05:46:19;99358.03;;;22.63;40.67
77543;BME280;66669;52.100;5.104;2023-04-01T05:48:45;99358.03;;;22.63;40.57
77543;BME280;66669;52.100;5.104;2023-04-01T05:51:13;99364.81;;;22.62;40.69
77543;BME280;66669;52.100;5.104;2023-04-01T05:53:39;99359.66;;;22.61;40.57
77543;BME280;66669;52.100;5.104;2023-04-01T05:56:04;99359.66;;;22.61;40.73
77543;BME280;66669;52.100;5.104;2023-04-01T05:58:30;99362.09;;;22.59;40.63
77543;BME280;66669;52.100;5.104;2023-04-01T06:01:06;99361.28;;;22.58;40.79
77543;BME280;66669;52.100;5.104;2023-04-01T06:03:31;99364.09;;;22.58;40.68
77543;BME280;66669;52.100;5.104;2023-04-01T06:05:57;99374.06;;;22.59;40.76
77543;BME280;66669;52.100;5.104;2023-04-01T06:08:23;99383.63;;;22.58;40.29
77543;BME280;66669;52.100;5.104;2023-04-01T06:16:19;99392.19;;;22.48;40.56
77543;BME280;66669;52.100;5.104;2023-04-01T06:18:52;99395.06;;;22.44;40.67
77543;BME280;66669;52.100;5.104;2023-04-01T06:21:27;99401.91;;;22.39;40.60
77543;BME280;66669;52.100;5.104;2023-04-01T06:26:44;99414.34;;;22.35;40.78
77543;BME280;66669;52.100;5.104;2023-04-01T06:29:19;99418.75;;;22.32;40.95
77543;BME280;66669;52.100;5.104;2023-04-01T06:32:10;99424.78;;;22.31;40.94
77543;BME280;66669;52.100;5.104;2023-04-01T06:42:43;99439.22;;;22.26;41.04
77543;BME280;66669;52.100;5.104;2023-04-01T06:45:18;99449.59;;;22.25;41.08
77543;BME280;66669;52.100;5.104;2023-04-01T06:47:49;99450.78;;;22.24;41.10
77543;BME280;66669;52.100;5.104;2023-04-01T06:52:56;99458.41;;;22.20;41.14
77543;BME280;66669;52.100;5.104;2023-04-01T06:58:00;99457.28;;;22.17;41.13
77543;BME280;66669;52.100;5.104;2023-04-01T07:00:32;99476.03;;;22.17;41.19
77543;BME280;66669;52.100;5.104;2023-04-01T07:03:18;99471.63;;;22.16;41.30
77543;BME280;66669;52.100;5.104;2023-04-01T07:05:45;99480.88;;;22.13;41.16
77543;BME280;66669;52.100;5.104;2023-04-01T07:08:24;99477.66;;;22.11;41.18
77543;BME280;66669;52.100;5.104;2023-04-01T07:10:53;99486.47;;;22.09;41.36
77543;BME280;66669;52.100;5.104;2023-04-01T07:13:24;99483.28;;;22.07;41.26
77543;BME280;66669;52.100;5.104;2023-04-01T07:15:54;99493.66;;;22.07;41.29
77543;BME280;66669;52.100;5.104;2023-04-01T07:18:22;99497.66;;;22.06;41.38
77543;BME280;66669;52.100;5.104;2023-04-01T07:20:50;99508.47;;;22.04;41.43
77543;BME280;66669;52.100;5.104;2023-04-01T07:23:20;99502.88;;;22.04;41.31
77543;BME280;66669;52.100;5.104;2023-04-01T07:25:47;99508.09;;;22.02;41.28
77543;BME280;66669;52.100;5.104;2023-04-01T07:28:16;99513.31;;;22.00;41.57
77543;BME280;66669;52.100;5.104;2023-04-01T07:33:29;99529.22;;;21.99;41.68
77543;BME280;66669;52.100;5.104;2023-04-01T07:36:21;99526.88;;;21.98;41.77
77543;BME280;66669;52.100;5.104;2023-04-01T07:46:24;99532.47;;;21.94;41.68
77543;BME280;66669;52.100;5.104;2023-04-01T07:48:58;99540.44;;;21.96;41.76
77543;BME280;66669;52.100;5.104;2023-04-01T07:51:30;99553.59;;;21.95;41.66
77543;BME280;66669;52.100;5.104;2023-04-01T07:54:08;99556.38;;;21.95;41.71
77543;BME280;66669;52.100;5.104;2023-04-01T07:56:38;99549.22;;;21.94;41.73
77543;BME280;66669;52.100;5.104;2023-04-01T08:04:06;99562.78;;;21.96;41.87
77543;BME280;66669;52.100;5.104;2023-04-01T08:06:43;99564.75;;;21.95;41.84
77543;BME280;66669;52.100;5.104;2023-04-01T08:09:19;99579.91;;;21.94;41.65
77543;BME280;66669;52.100;5.104;2023-04-01T08:17:00;99587.06;;;21.95;41.85
77543;BME280;66669;52.100;5.104;2023-04-01T08:21:57;99594.63;;;21.95;41.63
77543;BME280;66669;52.100;5.104;2023-04-01T08:26:59;99600.66;;;21.93;41.85
77543;BME280;66669;52.100;5.104;2023-04-01T08:31:58;99607.00;;;21.93;42.02
77543;BME280;66669;52.100;5.104;2023-04-01T08:34:26;99611.38;;;21.95;42.00
77543;BME280;66669;52.100;5.104;2023-04-01T08:36:54;99605.81;;;21.95;41.78
77543;BME280;66669;52.100;5.104;2023-04-01T08:39:25;99616.97;;;21.95;41.75
77543;BME280;66669;52.100;5.104;2023-04-01T08:44:29;99634.47;;;21.95;41.94
77543;BME280;66669;52.100;5.104;2023-04-01T08:49:32;99643.66;;;21.96;41.83
77543;BME280;66669;52.100;5.104;2023-04-01T08:54:46;99644.84;;;21.95;41.71
77543;BME280;66669;52.100;5.104;2023-04-01T08:57:15;99648.84;;;21.93;41.68
77543;BME280;66669;52.100;5.104;2023-04-01T08:59:50;99654.44;;;21.93;41.82
77543;BME280;66669;52.100;5.104;2023-04-01T09:02:42;99653.22;;;21.95;41.83
77543;BME280;66669;52.100;5.104;2023-04-01T09:10:43;99661.19;;;21.96;41.81
77543;BME280;66669;52.100;5.104;2023-04-01T09:28:42;99687.88;;;21.97;42.21
77543;BME280;66669;52.100;5.104;2023-04-01T09:38:34;99688.50;;;22.12;42.09
77543;BME280;66669;52.100;5.104;2023-04-01T09:48:42;99707.53;;;22.24;41.68
77543;BME280;66669;52.100;5.104;2023-04-01T10:02:08;99716.66;;;22.28;41.74
77543;BME280;66669;52.100;5.104;2023-04-01T10:04:47;99716.28;;;22.30;41.37
77543;BME280;66669;52.100;5.104;2023-04-01T10:07:32;99713.84;;;22.32;41.57
77543;BME280;66669;52.100;5.104;2023-04-01T10:15:10;99726.09;;;22.41;41.32
77543;BME280;66669;52.100;5.104;2023-04-01T10:23:00;99733.25;;;22.46;41.42
77543;BME280;66669;52.100;5.104;2023-04-01T10:25:41;99731.25;;;22.47;41.34
77543;BME280;66669;52.100;5.104;2023-04-01T10:54:43;99763.59;;;22.40;41.53
77543;BME280;66669;52.100;5.104;2023-04-01T11:00:10;99772.72;;;22.45;41.60
77543;BME280;66669;52.100;5.104;2023-04-01T11:15:30;99780.47;;;22.67;41.09
77543;BME280;66669;52.100;5.104;2023-04-01T11:35:36;99800.59;;;22.86;41.28
77543;BME280;66669;52.100;5.104;2023-04-01T11:40:47;99804.16;;;22.90;41.29
77543;BME280;66669;52.100;5.104;2023-04-01T11:58:50;99835.59;;;23.01;40.85
77543;BME280;66669;52.100;5.104;2023-04-01T12:01:22;99835.19;;;22.99;40.86
77543;BME280;66669;52.100;5.104;2023-04-01T12:03:57;99844.78;;;22.98;40.80
77543;BME280;66669;52.100;5.104;2023-04-01T12:13:56;99864.72;;;23.00;40.94
77543;BME280;66669;52.100;5.104;2023-04-01T12:19:15;99862.66;;;23.04;41.23
77543;BME280;66669;52.100;5.104;2023-04-01T12:24:29;99871.78;;;23.12;41.20
77543;BME280;66669;52.100;5.104;2023-04-01T12:27:09;99879.31;;;23.15;41.15
77543;BME280;66669;52.100;5.104;2023-04-01T12:37:15;99890.00;;;23.24;41.02
77543;BME280;66669;52.100;5.104;2023-04-01T12:50:08;99905.84;;;23.34;40.91
77543;BME280;66669;52.100;5.104;2023-04-01T12:52:50;99900.63;;;23.36;40.76
77543;BME280;66669;52.100;5.104;2023-04-01T13:00:39;99917.69;;;23.45;40.39
77543;BME280;66669;52.100;5.104;2023-04-01T13:08:12;99927.94;;;23.55;40.24
77543;BME280;66669;52.100;5.104;2023-04-01T13:10:45;99925.91;;;23.59;40.12
77543;BME280;66669;52.100;5.104;2023-04-01T13:16:24;99939.81;;;23.67;39.89
77543;BME280;66669;52.100;5.104;2023-04-01T13:18:43;99940.16;;;23.72;39.82
77543;BME280;66669;52.100;5.104;2023-04-01T13:21:17;99938.03;;;23.80;39.60
77543;BME280;66669;52.100;5.104;2023-04-01T13:23:48;99942.38;;;23.84;39.39
77543;BME280;66669;52.100;5.104;2023-04-01T13:26:29;99945.91;;;23.88;39.43
77543;BME280;66669;52.100;5.104;2023-04-01T13:29:18;99951.13;;;23.90;39.27
77543;BME280;66669;52.100;5.104;2023-04-01T13:34:32;99963.47;;;23.93;39.41
77543;BME280;66669;52.100;5.104;2023-04-01T13:42:21;99972.31;;;23.87;39.50
77543;BME280;66669;52.100;5.104;2023-04-01T13:44:51;99974.78;;;23.85;39.62
77543;BME280;66669;52.100;5.104;2023-04-01T13:47:23;99971.59;;;23.83;39.72
77543;BME280;66669;52.100;5.104;2023-04-01T13:55:14;99988.88;;;23.75;39.97
77543;BME280;66669;52.100;5.104;2023-04-01T14:00:19;99997.34;;;23.68;40.15
77543;BME280;66669;52.100;5.104;2023-04-01T14:02:50;99986.59;;;23.62;40.36
77543;BME280;66669;52.100;5.104;2023-04-01T14:12:58;100003.03;;;23.60;40.85
77543;BME280;66669;52.100;5.104;2023-04-01T14:20:29;100017.75;;;23.64;40.11
77543;BME280;66669;52.100;5.104;2023-04-01T14:33:42;100024.63;;;23.60;40.46
77543;BME280;66669;52.100;5.104;2023-04-01T14:41:31;100048.16;;;23.62;40.25
77543;BME280;66669;52.100;5.104;2023-04-01T14:50:02;100054.97;;;23.65;40.30
77543;BME280;66669;52.100;5.104;2023-04-01T14:52:04;100059.72;;;23.64;40.56
77543;BME280;66669;52.100;5.104;2023-04-01T14:54:35;100061.34;;;23.62;40.40
77543;BME280;66669;52.100;5.104;2023-04-01T14:57:12;100062.97;;;23.59;40.31
77543;BME280;66669;52.100;5.104;2023-04-01T14:59:41;100080.16;;;23.58;40.21
77543;BME280;66669;52.100;5.104;2023-04-01T15:04:58;100087.81;;;23.54;40.24
77543;BME280;66669;52.100;5.104;2023-04-01T15:12:56;100094.28;;;23.47;40.50
77543;BME280;66669;52.100;5.104;2023-04-01T15:30:51;100133.50;;;23.36;40.51
77543;BME280;66669;52.100;5.104;2023-04-01T15:33:26;100133.53;;;23.33;40.57
77543;BME280;66669;52.100;5.104;2023-04-01T15:41:02;100161.16;;;23.27;40.43
77543;BME280;66669;52.100;5.104;2023-04-01T15:49:04;100169.16;;;23.22;40.70
77543;BME280;66669;52.100;5.104;2023-04-01T15:56:30;100192.38;;;23.19;41.00
77543;BME280;66669;52.100;5.104;2023-04-01T15:59:13;100197.19;;;23.18;41.07
77543;BME280;66669;52.100;5.104;2023-04-01T16:15:13;100221.47;;;23.25;41.14
77543;BME280;66669;52.100;5.104;2023-04-01T16:20:24;100231.03;;;23.31;40.98
77543;BME280;66669;52.100;5.104;2023-04-01T16:23:00;100237.78;;;23.33;41.09
77543;BME280;66669;52.100;5.104;2023-04-01T16:25:36;100242.56;;;23.36;40.84
77543;BME280;66669;52.100;5.104;2023-04-01T16:30:48;100246.13;;;23.44;41.93
77543;BME280;66669;52.100;5.104;2023-04-01T16:43:48;100276.38;;;23.60;40.75
77543;BME280;66669;52.100;5.104;2023-04-01T16:54:26;100297.91;;;23.70;40.62
77543;BME280;66669;52.100;5.104;2023-04-01T16:57:02;100314.28;;;23.72;40.71
77543;BME280;66669;52.100;5.104;2023-04-01T16:59:41;100313.09;;;23.73;40.55
77543;BME280;66669;52.100;5.104;2023-04-01T17:02:16;100317.84;;;23.76;40.41
77543;BME280;66669;52.100;5.104;2023-04-01T17:07:22;100329.44;;;23.78;40.30
77543;BME280;66669;52.100;5.104;2023-04-01T17:10:51;100345.41;;;23.81;40.40
77543;BME280;66669;52.100;5.104;2023-04-01T17:20:42;100363.78;;;23.82;39.91
77543;BME280;66669;52.100;5.104;2023-04-01T17:33:27;100390.97;;;23.81;39.78
77543;BME280;66669;52.100;5.104;2023-04-01T17:46:27;100425.00;;;23.73;39.88
77543;BME280;66669;52.100;5.104;2023-04-01T17:49:07;100430.19;;;23.74;40.14
77543;BME280;66669;52.100;5.104;2023-04-01T17:51:48;100442.97;;;23.75;40.25
77543;BME280;66669;52.100;5.104;2023-04-01T18:07:33;100468.88;;;23.90;40.25
77543;BME280;66669;52.100;5.104;2023-04-01T18:20:46;100505.59;;;24.03;39.88
77543;BME280;66669;52.100;5.104;2023-04-01T18:25:21;100517.94;;;24.09;39.75
77543;BME280;66669;52.100;5.104;2023-04-01T18:27:53;100529.16;;;24.09;39.36
77543;BME280;66669;52.100;5.104;2023-04-01T18:30:28;100539.13;;;24.10;39.59
77543;BME280;66669;52.100;5.104;2023-04-01T18:32:58;100539.53;;;24.12;39.51
77543;BME280;66669;52.100;5.104;2023-04-01T18:35:28;100549.53;;;24.13;39.60
77543;BME280;66669;52.100;5.104;2023-04-01T18:38:06;100551.94;;;24.14;39.33
77543;BME280;66669;52.100;5.104;2023-04-01T18:40:53;100557.91;;;24.17;39.34
77543;BME280;66669;52.100;5.104;2023-04-01T18:45:58;100565.91;;;24.18;39.32
77543;BME280;66669;52.100;5.104;2023-04-01T18:51:20;100587.91;;;24.20;39.19
77543;BME280;66669;52.100;5.104;2023-04-01T18:53:53;100594.31;;;24.20;39.28
77543;BME280;66669;52.100;5.104;2023-04-01T18:56:29;100589.91;;;24.19;39.15
77543;BME280;66669;52.100;5.104;2023-04-01T18:59:05;100607.91;;;24.18;39.21
77543;BME280;66669;52.100;5.104;2023-04-01T19:04:11;100616.69;;;24.24;39.05
77543;BME280;66669;52.100;5.104;2023-04-01T19:06:47;100618.69;;;24.23;39.18
77543;BME280;66669;52.100;5.104;2023-04-01T19:09:19;100629.09;;;24.23;38.79
77543;BME280;66669;52.100;5.104;2023-04-01T19:16:48;100642.28;;;24.26;38.79
77543;BME280;66669;52.100;5.104;2023-04-01T19:19:24;100650.28;;;24.27;38.76
77543;BME280;66669;52.100;5.104;2023-04-01T19:21:56;100660.28;;;24.25;38.72
77543;BME280;66669;52.100;5.104;2023-04-01T19:43:06;100704.28;;;24.31;38.37
77543;BME280;66669;52.100;5.104;2023-04-01T19:45:51;100707.47;;;24.33;38.54
77543;BME280;66669;52.100;5.104;2023-04-01T20:01:17;100744.69;;;24.30;38.30
77543;BME280;66669;52.100;5.104;2023-04-01T20:03:50;100747.50;;;24.30;38.32
77543;BME280;66669;52.100;5.104;2023-04-01T20:06:21;100757.09;;;24.33;38.47
77543;BME280;66669;52.100;5.104;2023-04-01T20:19:10;100778.28;;;24.34;38.40
77543;BME280;66669;52.100;5.104;2023-04-01T20:21:41;100793.88;;;24.35;38.37
77543;BME280;66669;52.100;5.104;2023-04-01T20:24:14;100782.69;;;24.35;38.42
77543;BME280;66669;52.100;5.104;2023-04-01T20:26:42;100790.28;;;24.34;38.46
77543;BME280;66669;52.100;5.104;2023-04-01T20:31:36;100807.09;;;24.34;38.33
77543;BME280;66669;52.100;5.104;2023-04-01T20:37:16;100820.72;;;24.36;38.38
77543;BME280;66669;52.100;5.104;2023-04-01T20:39:30;100829.53;;;24.38;38.31
77543;BME280;66669;52.100;5.104;2023-04-01T20:47:23;100850.75;;;24.43;38.41
77543;BME280;66669;52.100;5.104;2023-04-01T20:49:54;100851.16;;;24.45;38.25
77543;BME280;66669;52.100;5.104;2023-04-01T20:52:45;100858.34;;;24.46;38.04
77543;BME280;66669;52.100;5.104;2023-04-01T21:13:45;100898.38;;;24.46;37.98
77543;BME280;66669;52.100;5.104;2023-04-01T21:16:23;100901.59;;;24.48;38.12
77543;BME280;66669;52.100;5.104;2023-04-01T21:32:24;100931.97;;;24.28;37.75
77543;BME280;66669;52.100;5.104;2023-04-01T21:37:05;100949.97;;;24.24;37.85
77543;BME280;66669;52.100;5.104;2023-04-01T21:39:52;100956.38;;;24.24;38.20
77543;BME280;66669;52.100;5.104;2023-04-01T22:00:25;100989.97;;;24.06;38.47
77543;BME280;66669;52.100;5.104;2023-04-01T22:13:18;101012.75;;;23.98;38.60
77543;BME280;66669;52.100;5.104;2023-04-01T22:18:21;101027.13;;;23.96;38.48
77543;BME280;66669;52.100;5.104;2023-04-01T22:20:53;101031.13;;;23.95;38.68
77543;BME280;66669;52.100;5.104;2023-04-01T22:26:13;101034.69;;;23.92;38.63
77543;BME280;66669;52.100;5.104;2023-04-01T22:28:59;101045.50;;;23.90;38.57
77543;BME280;66669;52.100;5.104;2023-04-01T22:31:30;101055.91;;;23.89;38.86
77543;BME280;66669;52.100;5.104;2023-04-01T22:34:04;101050.69;;;23.88;38.41
77543;BME280;66669;52.100;5.104;2023-04-01T22:36:39;101051.88;;;23.87;38.75
77543;BME280;66669;52.100;5.104;2023-04-01T22:39:16;101060.69;;;23.85;39.07
77543;BME280;66669;52.100;5.104;2023-04-01T22:41:59;101069.47;;;23.84;39.03
77543;BME280;66669;52.100;5.104;2023-04-01T22:47:06;101078.25;;;23.82;39.09
77543;BME280;66669;52.100;5.104;2023-04-01T22:49:37;101084.25;;;23.81;38.87
77543;BME280;66669;52.100;5.104;2023-04-01T22:54:51;101099.84;;;23.78;39.33
77543;BME280;66669;52.100;5.104;2023-04-01T22:59:45;101103.41;;;23.75;39.13
77543;BME280;66669;52.100;5.104;2023-04-01T23:04:39;101110.19;;;23.74;39.43